Time;durP1;ratioP1;P1;durP2;ratioP2;P2;SDS_P1;SDS_P2;PMS_P1;PMS_P2;Temp;Humidity;BMP_temperature;BMP_pressure;BME280_temperature;BME280_humidity;BME280_pressure;Samples;Min_cycle;Max_cycle;Signal;HPM_P1;HPM_P2
2021/04/24 00:01:30;;;;;;;9.85;6.32;;;17.40;56.80;;;;;;5044677;28;20052;-71
2021/04/24 00:03:59;;;;;;;9.45;6.47;;;17.60;56.10;;;;;;5046260;28;20029;-60
2021/04/24 00:06:27;;;;;;;13.38;10.15;;;17.90;55.30;;;;;;5050648;28;20079;-61
2021/04/24 00:08:55;;;;;;;9.68;6.38;;;18.20;54.40;;;;;;5046958;28;20032;-71
2021/04/24 00:11:23;;;;;;;7.97;5.85;;;18.40;52.60;;;;;;5053154;28;20116;-70
2021/04/24 00:13:51;;;;;;;11.85;9.50;;;18.50;52.60;;;;;;5055134;28;20066;-70
2021/04/24 00:16:20;;;;;;;14.00;9.43;;;18.60;52.40;;;;;;5053219;28;20021;-62
2021/04/24 00:18:48;;;;;;;9.27;6.38;;;18.90;52.60;;;;;;5053394;28;20035;-63
2021/04/24 00:21:16;;;;;;;9.18;6.38;;;18.90;51.00;;;;;;5051882;28;20021;-63
2021/04/24 00:23:44;;;;;;;8.27;5.53;;;18.90;51.70;;;;;;5054424;28;20029;-61
2021/04/24 00:26:11;;;;;;;8.05;5.75;;;18.90;51.80;;;;;;5056577;28;20112;-70
2021/04/24 00:28:39;;;;;;;9.63;5.82;;;18.90;51.50;;;;;;5052063;28;20032;-70
2021/04/24 00:31:06;;;;;;;8.40;6.15;;;19.00;51.20;;;;;;5046612;28;20108;-61
2021/04/24 00:33:34;;;;;;;7.43;5.38;;;19.00;51.70;;;;;;5047281;28;20376;-67
2021/04/24 00:36:01;;;;;;;9.68;5.95;;;19.10;50.60;;;;;;5047758;28;20104;-62
2021/04/24 00:38:29;;;;;;;5.38;4.57;;;19.30;51.10;;;;;;5049447;28;20060;-62
2021/04/24 00:40:56;;;;;;;6.40;4.60;;;19.20;50.70;;;;;;5051281;28;20100;-68
2021/04/24 00:43:24;;;;;;;6.72;5.13;;;19.10;51.00;;;;;;5054464;28;20034;-61
2021/04/24 00:45:51;;;;;;;7.72;5.63;;;19.20;51.00;;;;;;5049119;28;20029;-71
2021/04/24 00:48:19;;;;;;;12.90;10.18;;;19.40;52.00;;;;;;5045406;28;20029;-69
2021/04/24 00:50:46;;;;;;;8.90;5.43;;;19.50;51.80;;;;;;5043675;28;20024;-70
2021/04/24 00:53:14;;;;;;;6.38;4.75;;;19.80;49.90;;;;;;5047114;28;20124;-63
2021/04/24 00:55:42;;;;;;;9.90;3.95;;;20.10;50.30;;;;;;5047157;28;21009;-62
2021/04/24 00:58:12;;;;;;;7.60;5.43;;;20.20;47.10;;;;;;5045440;28;20017;-69
2021/04/24 01:00:40;;;;;;;5.00;3.97;;;20.30;46.50;;;;;;5058998;28;20057;-70
2021/04/24 01:03:08;;;;;;;11.63;4.30;;;20.50;45.90;;;;;;5054400;28;20048;-61
2021/04/24 01:05:40;;;;;;;8.07;4.57;;;20.70;46.70;;;;;;5056016;28;20079;-61
2021/04/24 01:08:08;;;;;;;7.78;3.90;;;20.80;46.20;;;;;;5057419;28;20112;-62
2021/04/24 01:10:43;;;;;;;8.40;4.25;;;21.10;45.70;;;;;;5058850;28;20028;-69
2021/04/24 01:13:11;;;;;;;5.35;3.65;;;21.20;45.70;;;;;;5030863;28;20415;-70
2021/04/24 01:15:39;;;;;;;9.02;7.90;;;21.10;45.00;;;;;;5044323;28;20236;-69
2021/04/24 01:18:11;;;;;;;5.35;3.40;;;21.10;44.90;;;;;;5050799;28;20028;-70
2021/04/24 01:20:39;;;;;;;9.83;8.20;;;21.10;45.20;;;;;;5055171;28;20365;-62
2021/04/24 01:23:08;;;;;;;7.78;5.05;;;21.20;46.50;;;;;;5048258;28;20067;-71
2021/04/24 01:25:38;;;;;;;11.32;8.10;;;21.10;47.10;;;;;;5048733;28;20025;-70
2021/04/24 01:28:06;;;;;;;5.35;3.72;;;21.00;47.20;;;;;;5046916;28;20029;-69
2021/04/24 01:30:39;;;;;;;7.55;4.15;;;21.10;46.40;;;;;;5048241;28;20025;-61
2021/04/24 01:33:09;;;;;;;9.93;4.47;;;21.30;47.10;;;;;;5049323;28;20071;-63
2021/04/24 01:35:39;;;;;;;10.23;3.55;;;21.30;46.50;;;;;;5046444;28;20057;-71
2021/04/24 01:38:07;;;;;;;7.47;3.25;;;21.30;46.40;;;;;;5049326;28;20475;-62
2021/04/24 01:40:34;;;;;;;8.05;3.28;;;21.40;47.00;;;;;;5049112;28;20363;-60
2021/04/24 01:43:04;;;;;;;6.55;3.20;;;21.40;47.70;;;;;;5048521;28;20167;-60
2021/04/24 01:45:31;;;;;;;7.78;3.22;;;21.50;45.30;;;;;;5048637;28;20464;-69
2021/04/24 01:47:59;;;;;;;8.48;3.58;;;21.70;47.10;;;;;;5046365;28;20134;-69
2021/04/24 01:50:37;;;;;;;6.13;3.63;;;21.80;46.00;;;;;;5049898;28;20530;-71
2021/04/24 01:53:07;;;;;;;6.97;3.75;;;21.90;47.10;;;;;;5053163;28;20378;-70
2021/04/24 01:55:37;;;;;;;8.02;3.53;;;22.30;46.20;;;;;;5048921;28;20059;-69
2021/04/24 01:58:08;;;;;;;5.53;3.55;;;22.30;45.10;;;;;;5049101;28;20040;-68
2021/04/24 02:00:43;;;;;;;6.70;3.17;;;22.30;45.70;;;;;;5050769;28;20060;-68
2021/04/24 02:03:14;;;;;;;6.68;2.83;;;22.60;45.70;;;;;;5031156;28;20013;-71
2021/04/24 02:05:44;;;;;;;5.38;3.25;;;22.80;44.50;;;;;;5030040;28;20031;-61
2021/04/24 02:08:14;;;;;;;9.88;3.42;;;22.80;45.70;;;;;;5048449;28;20056;-63
2021/04/24 02:10:45;;;;;;;6.07;3.50;;;23.00;45.30;;;;;;5051443;28;20033;-70
2021/04/24 02:13:22;;;;;;;6.63;3.60;;;22.90;44.00;;;;;;5049642;28;20129;-69
2021/04/24 02:15:49;;;;;;;6.15;2.92;;;23.10;42.60;;;;;;5048748;28;20020;-61
2021/04/24 02:18:17;;;;;;;3.75;2.70;;;23.10;43.50;;;;;;5048058;28;20714;-69
2021/04/24 02:20:45;;;;;;;6.97;3.20;;;23.10;43.20;;;;;;5049800;28;20024;-62
2021/04/24 02:23:14;;;;;;;5.60;3.65;;;23.20;44.00;;;;;;5049541;28;20025;-63
2021/04/24 02:25:46;;;;;;;7.32;3.33;;;23.30;43.00;;;;;;5047970;28;20028;-61
2021/04/24 02:28:16;;;;;;;5.32;3.17;;;23.20;42.30;;;;;;5047904;28;20107;-69
2021/04/24 02:30:45;;;;;;;4.38;2.83;;;23.10;43.30;;;;;;5046109;28;20358;-63
2021/04/24 02:33:12;;;;;;;8.77;6.72;;;23.10;43.90;;;;;;5046618;28;20095;-67
2021/04/24 02:35:56;;;;;;;13.70;8.65;;;23.20;44.30;;;;;;5048128;28;20036;-63
2021/04/24 02:38:30;;;;;;;11.98;3.42;;;23.40;44.70;;;;;;5046898;28;20028;-71
2021/04/24 02:41:00;;;;;;;7.43;2.83;;;23.40;42.20;;;;;;5047139;28;20108;-61
2021/04/24 02:43:28;;;;;;;6.75;3.40;;;23.50;42.10;;;;;;5046171;28;20021;-61
2021/04/24 02:45:56;;;;;;;3.55;2.53;;;23.60;42.20;;;;;;5058617;22;20053;-68
2021/04/24 02:48:23;;;;;;;5.25;2.50;;;23.60;43.60;;;;;;5053974;28;20036;-61
2021/04/24 02:50:51;;;;;;;8.27;3.15;;;23.80;42.80;;;;;;5055368;28;20151;-62
2021/04/24 02:53:19;;;;;;;5.68;3.00;;;23.80;41.00;;;;;;5055120;28;20047;-69
2021/04/24 02:55:46;;;;;;;4.78;2.65;;;23.80;42.70;;;;;;5055509;28;20131;-70
2021/04/24 02:58:13;;;;;;;4.85;2.80;;;23.90;41.70;;;;;;5054559;28;20043;-69
2021/04/24 03:00:41;;;;;;;6.28;2.63;;;23.90;41.70;;;;;;5055427;28;20021;-68
2021/04/24 03:03:13;;;;;;;5.78;2.58;;;24.00;40.60;;;;;;5052184;28;20479;-62
2021/04/24 03:05:41;;;;;;;8.98;2.60;;;23.80;41.70;;;;;;5052370;28;20059;-70
2021/04/24 03:08:10;;;;;;;7.75;2.97;;;23.80;42.30;;;;;;5055029;28;20032;-63
2021/04/24 03:10:39;;;;;;;5.47;3.05;;;23.40;41.50;;;;;;5057120;28;20024;-70
2021/04/24 03:13:08;;;;;;;6.05;2.55;;;23.40;41.90;;;;;;5053393;28;20029;-68
2021/04/24 03:15:36;;;;;;;5.75;2.65;;;23.60;42.70;;;;;;5056446;28;20024;-62
2021/04/24 03:18:04;;;;;;;8.25;3.20;;;23.90;41.80;;;;;;5051856;28;20087;-61
2021/04/24 03:20:32;;;;;;;7.50;3.83;;;24.00;41.70;;;;;;5054674;28;20017;-63
2021/04/24 03:23:00;;;;;;;7.25;3.60;;;24.00;42.00;;;;;;5053023;28;20044;-69
2021/04/24 03:25:28;;;;;;;6.93;3.38;;;23.90;41.80;;;;;;5053284;28;20364;-70
2021/04/24 03:27:55;;;;;;;5.20;2.80;;;24.10;41.20;;;;;;5051048;28;20071;-62
2021/04/24 03:30:22;;;;;;;7.97;2.83;;;24.00;41.50;;;;;;5054090;28;20024;-70
2021/04/24 03:32:50;;;;;;;4.40;2.45;;;24.00;41.60;;;;;;5056863;28;20024;-70
2021/04/24 03:35:17;;;;;;;7.80;2.35;;;24.10;40.80;;;;;;5056873;28;20025;-68
2021/04/24 03:37:44;;;;;;;7.45;3.88;;;24.30;41.70;;;;;;5055895;28;20023;-72
2021/04/24 03:40:12;;;;;;;7.00;3.28;;;24.50;41.90;;;;;;5054605;28;20505;-62
2021/04/24 03:42:39;;;;;;;6.28;3.03;;;24.60;41.50;;;;;;5051134;28;20025;-61
2021/04/24 03:45:17;;;;;;;6.00;2.83;;;24.80;40.60;;;;;;5053186;28;20024;-60
2021/04/24 03:47:47;;;;;;;5.43;2.95;;;24.70;41.90;;;;;;5054750;28;20055;-62
2021/04/24 03:50:15;;;;;;;7.55;4.40;;;24.60;42.40;;;;;;5053439;28;20029;-71
2021/04/24 03:52:43;;;;;;;6.55;3.55;;;24.50;41.00;;;;;;5052206;28;20033;-63
2021/04/24 03:55:11;;;;;;;4.63;2.72;;;24.20;41.20;;;;;;5054226;28;20144;-71
2021/04/24 03:57:38;;;;;;;7.72;3.13;;;24.10;41.90;;;;;;5054364;28;20285;-63
2021/04/24 04:00:09;;;;;;;8.25;2.90;;;24.30;42.60;;;;;;5055721;28;20032;-64
2021/04/24 04:02:48;;;;;;;2.90;2.08;;;24.50;41.70;;;;;;5055413;28;20021;-64
2021/04/24 04:05:17;;;;;;;4.95;2.42;;;24.50;39.90;;;;;;5053961;28;20044;-72
2021/04/24 04:07:45;;;;;;;4.60;2.53;;;24.50;40.40;;;;;;5053541;28;20031;-70
2021/04/24 04:10:15;;;;;;;4.97;2.25;;;24.40;40.60;;;;;;5055379;28;20536;-72
2021/04/24 04:12:44;;;;;;;3.97;2.60;;;24.40;41.50;;;;;;5051565;28;20033;-72
2021/04/24 04:15:13;;;;;;;7.18;2.60;;;24.50;40.60;;;;;;5054126;28;20075;-69
2021/04/24 04:17:40;;;;;;;3.78;2.53;;;24.60;40.60;;;;;;5053828;28;20035;-61
2021/04/24 04:20:10;;;;;;;6.90;2.60;;;24.70;40.40;;;;;;5054383;28;20021;-73
2021/04/24 04:22:38;;;;;;;8.05;2.55;;;24.90;40.60;;;;;;5052196;28;20024;-70
2021/04/24 04:25:06;;;;;;;5.93;2.22;;;25.00;40.40;;;;;;5054081;28;20313;-71
2021/04/24 04:27:33;;;;;;;5.53;2.70;;;25.00;40.00;;;;;;5055906;28;20031;-70
2021/04/24 04:30:01;;;;;;;4.18;2.75;;;24.80;40.30;;;;;;5049166;28;20028;-62
2021/04/24 04:32:28;;;;;;;4.53;2.72;;;25.00;40.20;;;;;;5053687;28;20050;-69
2021/04/24 04:34:55;;;;;;;6.00;2.60;;;25.10;41.00;;;;;;5055955;28;20036;-63
2021/04/24 04:37:22;;;;;;;6.35;2.33;;;25.00;39.80;;;;;;5058854;28;20454;-62
2021/04/24 04:39:50;;;;;;;4.97;3.03;;;24.90;39.70;;;;;;5056745;28;20088;-61
2021/04/24 04:42:17;;;;;;;6.90;2.67;;;24.90;40.20;;;;;;5057763;28;20020;-62
2021/04/24 04:44:44;;;;;;;6.63;2.60;;;24.80;39.20;;;;;;5059208;28;20383;-69
2021/04/24 04:47:12;;;;;;;7.03;2.60;;;24.70;39.30;;;;;;5055450;28;20079;-61
2021/04/24 04:49:39;;;;;;;6.50;2.65;;;24.70;39.30;;;;;;5047012;28;20040;-68
2021/04/24 04:52:06;;;;;;;6.38;4.75;;;24.70;39.20;;;;;;5059520;28;20029;-68
2021/04/24 04:54:34;;;;;;;4.75;2.45;;;24.70;40.20;;;;;;5059712;28;20510;-60
2021/04/24 04:57:01;;;;;;;6.25;2.58;;;24.70;39.60;;;;;;5052678;28;20024;-68
2021/04/24 04:59:28;;;;;;;4.47;2.63;;;24.70;38.90;;;;;;5055280;28;20120;-64
2021/04/24 05:01:59;;;;;;;7.72;2.95;;;24.60;40.20;;;;;;5054181;28;20079;-61
2021/04/24 05:04:26;;;;;;;8.18;2.83;;;24.70;40.50;;;;;;5056047;28;20033;-61
2021/04/24 05:06:54;;;;;;;6.18;2.13;;;24.60;40.20;;;;;;5059699;28;20036;-61
2021/04/24 05:09:24;;;;;;;3.10;2.20;;;24.70;40.70;;;;;;5056571;28;20088;-67
2021/04/24 05:11:52;;;;;;;4.50;2.72;;;24.70;40.50;;;;;;5058797;28;20067;-64
2021/04/24 05:14:19;;;;;;;3.70;2.75;;;24.80;40.60;;;;;;5055769;28;20021;-59
2021/04/24 05:16:46;;;;;;;5.28;2.15;;;24.90;40.40;;;;;;5055543;28;20036;-66
2021/04/24 05:19:14;;;;;;;6.43;2.50;;;24.70;40.30;;;;;;5053794;28;20035;-66
2021/04/24 05:21:41;;;;;;;4.78;2.28;;;24.70;40.80;;;;;;5054606;28;20017;-66
2021/04/24 05:24:09;;;;;;;4.88;2.63;;;24.70;40.80;;;;;;5059588;28;20020;-61
2021/04/24 05:29:58;;;;;;;4.53;2.60;;;24.10;41.10;;;;;;5046077;28;20073;-68
2021/04/24 05:32:26;;;;;;;6.25;2.90;;;23.90;42.40;;;;;;5048827;28;20533;-62
2021/04/24 05:34:53;;;;;;;4.55;2.65;;;24.20;41.60;;;;;;5049378;28;20021;-63
2021/04/24 05:37:21;;;;;;;6.25;2.97;;;24.20;40.80;;;;;;4350353;28;10000375;-62
2021/04/24 05:39:48;;;;;;;6.85;3.38;;;24.40;40.90;;;;;;5046606;28;20025;-61
2021/04/24 05:42:15;;;;;;;3.60;2.40;;;24.40;41.10;;;;;;5038829;28;20383;-60
2021/04/24 05:44:42;;;;;;;3.33;2.72;;;24.50;41.40;;;;;;5046230;28;20025;-61
2021/04/24 05:47:10;;;;;;;5.07;2.78;;;24.60;40.40;;;;;;5045653;28;20076;-63
2021/04/24 05:49:37;;;;;;;9.40;3.40;;;24.70;40.70;;;;;;5047124;28;20017;-69
2021/04/24 05:52:06;;;;;;;4.88;2.45;;;24.80;40.40;;;;;;5045459;28;20056;-61
2021/04/24 05:54:34;;;;;;;4.38;2.50;;;24.80;40.10;;;;;;5043674;28;20033;-61
2021/04/24 05:57:02;;;;;;;5.03;2.33;;;24.80;40.20;;;;;;5053089;28;20113;-60
2021/04/24 05:59:29;;;;;;;5.32;3.20;;;25.10;40.10;;;;;;5042428;28;20040;-62
2021/04/24 06:01:56;;;;;;;2.58;2.38;;;25.30;39.50;;;;;;5042747;28;20116;-61
2021/04/24 06:04:24;;;;;;;3.47;2.33;;;25.50;39.50;;;;;;5041531;28;20468;-62
2021/04/24 06:06:52;;;;;;;6.35;3.05;;;25.50;39.80;;;;;;5045212;28;20035;-70
2021/04/24 06:09:19;;;;;;;5.88;3.00;;;25.60;38.50;;;;;;5041375;28;20035;-68
2021/04/24 06:11:46;;;;;;;5.55;2.78;;;25.40;39.20;;;;;;5041506;28;20040;-60
2021/04/24 06:14:13;;;;;;;6.32;2.60;;;25.30;39.30;;;;;;5039267;28;20033;-60
2021/04/24 06:16:41;;;;;;;4.50;2.85;;;25.20;38.90;;;;;;5040225;28;20037;-60
2021/04/24 06:19:08;;;;;;;3.70;2.35;;;25.20;39.40;;;;;;5045353;28;20637;-70
2021/04/24 06:21:35;;;;;;;4.60;2.65;;;25.20;39.70;;;;;;5045506;28;20027;-62
2021/04/24 06:24:03;;;;;;;5.55;2.35;;;25.30;39.30;;;;;;5045195;28;20055;-67
2021/04/24 06:26:30;;;;;;;3.85;2.67;;;25.20;38.90;;;;;;5045265;28;20028;-60
2021/04/24 06:28:57;;;;;;;6.65;2.45;;;25.10;39.70;;;;;;5045711;28;20155;-70
2021/04/24 06:31:25;;;;;;;5.03;2.95;;;25.00;39.70;;;;;;5037762;28;20109;-69
2021/04/24 06:33:52;;;;;;;5.05;2.53;;;25.00;40.10;;;;;;5046259;28;20017;-61
2021/04/24 06:36:19;;;;;;;4.07;2.47;;;24.90;39.80;;;;;;5045293;28;20033;-62
2021/04/24 06:38:46;;;;;;;6.85;2.70;;;24.90;39.90;;;;;;5046449;28;20036;-60
2021/04/24 06:41:14;;;;;;;4.55;2.47;;;24.90;39.80;;;;;;5046120;28;20057;-69
2021/04/24 06:43:41;;;;;;;3.60;2.40;;;24.90;40.20;;;;;;5044654;28;20481;-68
2021/04/24 06:46:08;;;;;;;5.32;2.50;;;25.00;40.30;;;;;;5041510;28;20102;-67
2021/04/24 06:48:36;;;;;;;4.13;2.65;;;24.80;39.70;;;;;;5045763;28;20474;-67
2021/04/24 06:51:03;;;;;;;2.75;2.28;;;24.40;41.60;;;;;;5047955;28;20033;-62
2021/04/24 06:53:33;;;;;;;6.90;2.70;;;24.10;42.00;;;;;;5046547;28;20053;-63
2021/04/24 06:56:00;;;;;;;3.90;2.47;;;23.90;42.00;;;;;;5045556;28;20025;-67
2021/04/24 06:58:28;;;;;;;3.45;2.15;;;23.70;42.20;;;;;;5044766;28;20028;-67
2021/04/24 07:00:55;;;;;;;5.57;2.38;;;23.50;42.80;;;;;;5044055;28;20083;-62
2021/04/24 07:03:26;;;;;;;6.93;2.67;;;23.30;42.80;;;;;;5045383;28;20028;-68
2021/04/24 07:05:53;;;;;;;7.00;2.88;;;23.10;44.10;;;;;;5045615;28;20516;-64
2021/04/24 07:08:21;;;;;;;8.43;2.80;;;22.80;44.90;;;;;;5045148;28;20406;-63
2021/04/24 07:10:48;;;;;;;11.60;3.20;;;22.40;46.10;;;;;;5044942;28;20064;-63
2021/04/24 07:13:15;;;;;;;10.82;3.22;;;22.10;47.00;;;;;;5044482;28;20029;-63
2021/04/24 07:15:43;;;;;;;11.90;2.75;;;22.10;47.20;;;;;;5043825;28;20112;-62
2021/04/24 07:18:10;;;;;;;9.52;2.90;;;21.90;47.00;;;;;;5044808;28;20507;-62
2021/04/24 07:20:37;;;;;;;7.38;2.95;;;21.40;47.80;;;;;;5044917;28;20031;-63
2021/04/24 07:23:05;;;;;;;9.45;2.60;;;20.90;49.60;;;;;;5044646;28;20036;-68
2021/04/24 07:25:32;;;;;;;9.25;3.05;;;20.30;51.50;;;;;;5042258;28;20026;-68
2021/04/24 07:27:59;;;;;;;7.80;3.88;;;19.70;53.20;;;;;;5043844;28;20421;-67
2021/04/24 07:30:27;;;;;;;7.15;3.03;;;19.40;54.40;;;;;;5039405;28;20021;-64
2021/04/24 07:32:54;;;;;;;7.15;3.22;;;19.20;55.40;;;;;;5044839;28;20025;-62
2021/04/24 07:35:22;;;;;;;12.38;3.80;;;19.10;56.00;;;;;;5044286;28;20025;-64
2021/04/24 07:37:49;;;;;;;9.38;3.05;;;19.00;56.30;;;;;;5044233;28;20054;-68
2021/04/24 07:40:16;;;;;;;7.20;3.45;;;18.70;57.00;;;;;;5044354;28;20025;-68
2021/04/24 07:42:44;;;;;;;11.15;6.03;;;18.40;58.30;;;;;;5043452;28;20502;-64
2021/04/24 07:45:13;;;;;;;7.03;4.05;;;18.20;58.40;;;;;;5044640;28;20035;-68
2021/04/24 07:47:45;;;;;;;11.63;4.60;;;18.20;58.40;;;;;;5043096;28;20049;-68
2021/04/24 07:50:14;;;;;;;8.98;5.13;;;18.10;58.60;;;;;;5040773;28;20029;-68
2021/04/24 07:52:41;;;;;;;9.90;4.85;;;18.00;58.40;;;;;;5043920;28;20040;-63
2021/04/24 07:55:09;;;;;;;8.38;5.03;;;17.90;58.60;;;;;;5039988;28;20068;-62
2021/04/24 07:57:36;;;;;;;14.02;5.47;;;17.80;59.50;;;;;;5043476;28;20234;-62
2021/04/24 08:00:06;;;;;;;7.47;4.68;;;17.70;60.10;;;;;;5042452;28;20025;-64
2021/04/24 08:02:33;;;;;;;12.02;5.20;;;17.60;60.60;;;;;;5041687;28;20440;-62
2021/04/24 08:05:01;;;;;;;13.88;5.30;;;17.50;60.90;;;;;;5038501;28;20021;-63
2021/04/24 08:07:28;;;;;;;10.93;5.28;;;17.40;61.20;;;;;;5043127;28;20526;-62
2021/04/24 08:09:56;;;;;;;12.15;5.35;;;17.30;61.50;;;;;;5042295;28;20064;-68
2021/04/24 08:12:23;;;;;;;13.40;5.25;;;17.20;62.20;;;;;;5041912;28;20067;-67
2021/04/24 08:14:50;;;;;;;9.75;4.60;;;17.20;62.30;;;;;;5045082;28;20043;-68
2021/04/24 08:17:17;;;;;;;7.72;5.32;;;17.10;62.50;;;;;;5054546;28;20107;-63
2021/04/24 08:19:46;;;;;;;10.80;5.20;;;16.90;63.00;;;;;;5049612;28;20029;-62
2021/04/24 08:22:13;;;;;;;10.20;4.30;;;16.90;62.90;;;;;;5048326;28;20027;-68
2021/04/24 08:24:40;;;;;;;8.13;4.63;;;16.80;62.90;;;;;;5044195;28;20029;-63
2021/04/24 08:27:08;;;;;;;7.88;5.38;;;16.80;63.10;;;;;;5044006;28;20055;-63
2021/04/24 08:29:35;;;;;;;8.40;5.40;;;16.70;62.90;;;;;;5044578;28;20024;-62
2021/04/24 08:32:04;;;;;;;8.50;5.43;;;16.60;63.30;;;;;;5036344;28;20025;-63
2021/04/24 08:34:32;;;;;;;7.70;4.10;;;16.50;63.80;;;;;;5041822;28;20029;-63
2021/04/24 08:36:59;;;;;;;7.20;4.30;;;16.50;63.60;;;;;;5037949;28;20427;-68
2021/04/24 08:39:26;;;;;;;10.52;4.90;;;16.50;63.90;;;;;;5039894;28;20035;-64
2021/04/24 08:41:54;;;;;;;8.07;4.90;;;16.50;64.00;;;;;;5041271;28;20028;-62
2021/04/24 08:44:21;;;;;;;8.57;5.80;;;16.40;63.50;;;;;;5041305;28;20029;-63
2021/04/24 08:46:50;;;;;;;14.68;9.18;;;16.40;64.00;;;;;;5043487;28;20102;-69
2021/04/24 08:49:25;;;;;;;9.55;5.32;;;16.40;63.90;;;;;;5018595;28;20029;-62
2021/04/24 08:51:53;;;;;;;11.45;5.35;;;16.30;64.20;;;;;;5042287;28;20044;-62
2021/04/24 08:54:21;;;;;;;7.63;4.35;;;16.20;64.20;;;;;;5042693;28;20489;-67
2021/04/24 08:56:49;;;;;;;6.25;3.65;;;16.20;63.90;;;;;;5043278;28;20024;-68
2021/04/24 08:59:16;;;;;;;6.32;4.00;;;16.00;64.80;;;;;;5036219;28;20754;-67
2021/04/24 09:01:44;;;;;;;8.25;3.83;;;15.90;64.90;;;;;;5043070;28;20074;-67
2021/04/24 09:04:11;;;;;;;9.75;4.20;;;15.80;66.20;;;;;;5036441;28;20032;-62
2021/04/24 09:06:38;;;;;;;7.18;4.32;;;15.60;67.30;;;;;;5042890;28;20036;-62
2021/04/24 09:09:08;;;;;;;10.45;5.05;;;15.50;68.70;;;;;;5037571;28;20266;-62
2021/04/24 09:11:47;;;;;;;7.72;4.90;;;15.60;69.30;;;;;;5023048;28;20023;-67
2021/04/24 09:14:20;;;;;;;8.98;4.80;;;15.60;69.70;;;;;;5023713;28;20028;-68
2021/04/24 09:16:51;;;;;;;12.95;5.85;;;15.60;70.50;;;;;;5024218;28;20045;-64
2021/04/24 09:19:35;;;;;;;8.75;5.38;;;15.60;71.10;;;;;;5016696;28;20060;-68
2021/04/24 09:22:23;;;;;;;7.80;5.78;;;15.60;71.10;;;;;;5020705;28;20075;-68
2021/04/24 09:24:55;;;;;;;10.65;5.00;;;15.50;71.30;;;;;;5020878;28;20029;-62
2021/04/24 09:27:48;;;;;;;8.38;4.95;;;15.40;71.90;;;;;;5033422;28;20486;-63
2021/04/24 09:30:27;;;;;;;8.43;4.95;;;15.30;72.70;;;;;;5020952;28;20057;-63
2021/04/24 09:33:01;;;;;;;9.93;5.03;;;15.10;73.60;;;;;;5012524;28;20469;-68
2021/04/24 09:35:28;;;;;;;8.07;5.60;;;14.90;74.00;;;;;;5026798;28;20061;-62
2021/04/24 09:38:03;;;;;;;7.95;5.30;;;14.90;74.90;;;;;;5026849;28;20026;-62
2021/04/24 09:40:30;;;;;;;7.57;4.80;;;14.90;74.30;;;;;;5023793;28;20030;-69
2021/04/24 09:43:08;;;;;;;9.85;5.80;;;14.80;75.20;;;;;;5026162;28;20021;-66
2021/04/24 09:45:41;;;;;;;9.48;5.93;;;14.70;74.90;;;;;;5021793;28;20026;-67
2021/04/24 09:48:23;;;;;;;11.48;6.53;;;14.50;74.90;;;;;;5036397;28;20028;-61
2021/04/24 09:50:50;;;;;;;9.05;5.43;;;14.60;75.00;;;;;;5025499;28;20040;-61
2021/04/24 09:53:25;;;;;;;10.48;6.28;;;14.60;75.10;;;;;;5029183;28;20091;-68
2021/04/24 09:55:56;;;;;;;18.55;6.05;;;14.60;74.80;;;;;;5030873;28;20034;-61
2021/04/24 09:58:40;;;;;;;21.67;7.80;;;14.50;74.70;;;;;;5016219;28;20037;-62
2021/04/24 10:01:27;;;;;;;17.85;6.13;;;14.50;75.00;;;;;;5030234;28;20719;-61
2021/04/24 10:03:56;;;;;;;23.55;7.72;;;14.30;76.10;;;;;;5034933;28;20048;-62
2021/04/24 10:06:33;;;;;;;16.70;6.97;;;14.20;76.60;;;;;;5032023;28;20502;-69
2021/04/24 10:09:14;;;;;;;14.55;6.95;;;14.10;77.40;;;;;;5026721;28;20024;-61
2021/04/24 10:11:45;;;;;;;17.38;6.85;;;14.10;76.90;;;;;;5024632;28;20480;-62
2021/04/24 10:14:12;;;;;;;14.02;6.57;;;14.00;77.40;;;;;;5032753;28;20040;-69
2021/04/24 10:16:44;;;;;;;12.93;7.28;;;14.00;77.30;;;;;;5026218;28;20071;-63
2021/04/24 10:19:16;;;;;;;11.75;6.85;;;13.90;78.80;;;;;;5029938;28;20021;-69
2021/04/24 10:21:44;;;;;;;10.63;6.03;;;14.00;78.00;;;;;;5025318;28;20033;-62
2021/04/24 10:24:13;;;;;;;13.13;7.38;;;13.80;78.00;;;;;;5032466;28;20022;-62
2021/04/24 10:26:42;;;;;;;14.75;7.28;;;13.80;78.30;;;;;;5027127;28;20084;-61
2021/04/24 10:29:11;;;;;;;12.02;7.53;;;13.70;79.10;;;;;;5038997;28;20029;-69
2021/04/24 10:31:39;;;;;;;10.90;7.07;;;13.70;79.70;;;;;;5031397;28;20030;-69
2021/04/24 10:34:07;;;;;;;12.20;7.05;;;13.60;79.80;;;;;;5022789;28;20507;-62
2021/04/24 10:36:37;;;;;;;11.00;7.35;;;13.60;79.90;;;;;;5036109;28;20037;-63
2021/04/24 10:39:08;;;;;;;11.05;7.07;;;13.50;80.40;;;;;;5034181;28;20033;-62
2021/04/24 10:41:43;;;;;;;16.77;7.40;;;13.40;81.00;;;;;;5031718;28;20533;-69
2021/04/24 10:44:14;;;;;;;12.02;7.45;;;13.50;80.80;;;;;;5026591;28;20443;-61
2021/04/24 10:46:58;;;;;;;13.68;7.07;;;13.60;80.70;;;;;;5034418;28;20649;-69
2021/04/24 10:49:32;;;;;;;9.18;6.38;;;13.70;80.40;;;;;;5028013;28;20025;-69
2021/04/24 10:52:20;;;;;;;11.50;6.65;;;13.70;81.40;;;;;;5030865;28;20108;-62
2021/04/24 10:55:14;;;;;;;10.38;7.18;;;13.70;81.90;;;;;;5032332;28;20025;-69
2021/04/24 10:57:42;;;;;;;9.23;6.90;;;13.70;82.20;;;;;;5028070;28;20038;-69
2021/04/24 11:00:18;;;;;;;14.60;7.22;;;13.70;82.60;;;;;;5026741;28;20088;-62
2021/04/24 11:02:56;;;;;;;12.10;7.57;;;13.60;82.80;;;;;;5030067;28;20025;-69
2021/04/24 11:05:34;;;;;;;10.30;6.43;;;13.50;83.50;;;;;;5029396;28;20030;-62
2021/04/24 11:08:10;;;;;;;10.35;6.53;;;13.50;83.20;;;;;;5026874;28;20064;-62
2021/04/24 11:10:49;;;;;;;9.02;6.65;;;13.40;83.60;;;;;;5028169;28;20030;-70
2021/04/24 11:13:18;;;;;;;10.23;6.88;;;13.40;83.40;;;;;;5032845;28;20527;-70
2021/04/24 11:15:46;;;;;;;7.95;6.75;;;13.40;83.40;;;;;;5027803;28;20513;-61
2021/04/24 11:18:15;;;;;;;12.05;7.15;;;13.40;83.50;;;;;;5027476;28;20030;-61
2021/04/24 11:20:51;;;;;;;13.57;9.85;;;13.40;84.40;;;;;;5024345;28;20021;-68
2021/04/24 11:23:35;;;;;;;11.95;7.53;;;13.40;83.90;;;;;;5026053;28;20044;-66
2021/04/24 11:26:11;;;;;;;13.32;7.20;;;13.30;83.80;;;;;;5021816;28;20488;-61
2021/04/24 11:29:13;;;;;;;11.27;8.05;;;13.30;83.80;;;;;;5027966;28;20044;-61
2021/04/24 11:32:03;;;;;;;8.77;7.35;;;13.10;83.90;;;;;;5026779;28;20392;-62
2021/04/24 11:34:34;;;;;;;13.43;8.38;;;12.90;84.90;;;;;;5033723;28;20343;-68
2021/04/24 11:37:31;;;;;;;12.00;7.55;;;12.80;85.20;;;;;;5026774;28;20429;-69
2021/04/24 11:40:16;;;;;;;16.88;9.52;;;12.70;85.60;;;;;;5021198;28;20108;-66
2021/04/24 11:42:54;;;;;;;17.27;11.32;;;12.60;85.40;;;;;;5030111;28;20124;-61
2021/04/24 11:45:49;;;;;;;19.35;9.48;;;12.50;85.80;;;;;;5024736;28;20036;-60
2021/04/24 11:48:37;;;;;;;20.02;9.45;;;12.50;86.40;;;;;;5026146;28;20037;-70
2021/04/24 11:51:05;;;;;;;21.20;8.60;;;12.50;87.00;;;;;;5029210;28;20113;-60
2021/04/24 11:53:47;;;;;;;23.05;9.40;;;12.50;87.40;;;;;;5030653;28;20029;-61
2021/04/24 11:56:17;;;;;;;23.70;9.00;;;12.40;86.80;;;;;;5029798;28;20129;-71
2021/04/24 11:58:45;;;;;;;20.33;10.65;;;12.40;87.40;;;;;;5029004;28;20387;-62
2021/04/24 12:01:26;;;;;;;24.80;8.40;;;12.40;87.20;;;;;;5036170;28;20025;-69
2021/04/24 12:03:54;;;;;;;19.40;9.43;;;12.30;87.30;;;;;;5024048;28;20029;-70
2021/04/24 12:06:36;;;;;;;17.83;8.70;;;12.20;87.90;;;;;;5021147;28;20255;-70
2021/04/24 12:09:07;;;;;;;13.32;8.90;;;12.20;88.00;;;;;;5018260;28;20092;-71
2021/04/24 12:11:34;;;;;;;17.83;9.75;;;12.20;88.50;;;;;;5029940;28;20381;-61
2021/04/24 12:14:01;;;;;;;18.98;9.43;;;12.20;88.30;;;;;;5025178;28;20395;-69
2021/04/24 12:16:46;;;;;;;11.55;8.90;;;12.30;87.80;;;;;;5019727;28;20053;-61
2021/04/24 12:19:27;;;;;;;15.98;9.95;;;12.40;88.00;;;;;;5024365;28;20431;-70
2021/04/24 12:22:02;;;;;;;14.30;9.18;;;12.50;87.50;;;;;;5017482;28;20030;-61
2021/04/24 12:24:29;;;;;;;13.73;9.52;;;12.40;87.70;;;;;;5015320;28;20104;-70
2021/04/24 12:26:56;;;;;;;13.48;9.48;;;12.30;88.20;;;;;;5017051;28;20375;-61
2021/04/24 12:29:43;;;;;;;16.00;9.70;;;12.30;87.90;;;;;;5022097;28;20472;-71
2021/04/24 12:32:16;;;;;;;13.63;10.68;;;12.30;88.60;;;;;;5017769;28;20050;-62
2021/04/24 12:34:44;;;;;;;14.32;9.57;;;12.30;87.90;;;;;;5012322;28;20028;-70
2021/04/24 12:37:14;;;;;;;14.13;10.60;;;12.20;88.60;;;;;;5024334;28;20037;-71
2021/04/24 12:39:42;;;;;;;12.25;9.80;;;12.30;89.30;;;;;;5023582;28;20025;-69
2021/04/24 12:42:11;;;;;;;14.55;10.52;;;12.30;89.00;;;;;;5019669;28;20269;-62
2021/04/24 12:44:40;;;;;;;17.73;10.57;;;12.30;88.90;;;;;;5021028;28;20038;-70
2021/04/24 12:47:08;;;;;;;14.73;10.77;;;12.10;89.40;;;;;;5017087;28;20099;-69
2021/04/24 12:49:41;;;;;;;21.00;11.00;;;12.00;90.20;;;;;;5020376;28;20026;-61
2021/04/24 12:52:08;;;;;;;;;;;12.20;89.20;;;;;;5025216;28;20033;-70
2021/04/24 12:54:36;;;;;;;15.98;12.45;;;12.20;89.00;;;;;;5022148;28;19909;-71
2021/04/24 12:57:20;;;;;;;20.33;12.68;;;12.10;89.60;;;;;;5024320;28;20029;-70
2021/04/24 12:59:58;;;;;;;16.65;12.07;;;12.00;89.70;;;;;;5013634;28;20523;-61
2021/04/24 13:02:39;;;;;;;16.30;11.90;;;11.90;90.20;;;;;;5013268;28;20018;-70